createdAt,value
2019-05-11T00:02:01.192Z,99.90
2019-05-11T00:04:29.573Z,99.90
2019-05-11T00:06:57.944Z,99.90
2019-05-11T00:09:26.316Z,99.90
2019-05-11T00:11:54.707Z,99.90
2019-05-11T00:14:23.123Z,99.90
2019-05-11T00:16:51.827Z,99.90
2019-05-11T00:19:20.209Z,99.90
2019-05-11T00:21:48.590Z,99.90
2019-05-11T00:24:16.972Z,99.90
2019-05-11T00:26:45.352Z,99.90
2019-05-11T00:29:13.740Z,99.90
2019-05-11T00:31:42.100Z,99.90
2019-05-11T00:34:10.500Z,99.90
2019-05-11T00:36:38.865Z,99.90
2019-05-11T00:39:07.973Z,99.90
2019-05-11T00:41:36.360Z,99.90
2019-05-11T00:44:04.799Z,99.90
2019-05-11T00:46:33.183Z,99.90
2019-05-11T00:49:01.575Z,99.90
2019-05-11T00:51:29.960Z,99.90
2019-05-11T00:53:58.343Z,99.90
2019-05-11T00:56:26.728Z,99.90
2019-05-11T00:58:55.095Z,99.90
2019-05-11T01:01:23.944Z,99.90
2019-05-11T01:03:52.677Z,99.90
2019-05-11T01:06:21.133Z,99.90
2019-05-11T01:08:49.511Z,99.90
2019-05-11T01:11:17.887Z,99.90
2019-05-11T01:13:46.264Z,99.90
2019-05-11T01:16:14.641Z,99.90
2019-05-11T01:18:43.028Z,99.90
2019-05-11T01:21:11.414Z,99.90
2019-05-11T01:23:39.789Z,99.90
2019-05-11T01:26:08.419Z,99.90
2019-05-11T01:28:36.807Z,99.90
2019-05-11T01:31:05.183Z,99.90
2019-05-11T01:33:33.563Z,99.90
2019-05-11T01:36:01.951Z,99.90
2019-05-11T01:38:30.330Z,99.90
2019-05-11T01:40:59.314Z,99.90
2019-05-11T01:43:27.763Z,99.90
2019-05-11T01:45:56.135Z,99.90
2019-05-11T01:48:24.528Z,99.90
2019-05-11T01:50:52.907Z,99.90
2019-05-11T01:53:21.287Z,99.90
2019-05-11T01:55:49.671Z,99.90
2019-05-11T01:58:18.051Z,99.90
2019-05-11T02:00:46.435Z,99.90
2019-05-11T02:03:14.808Z,99.90
2019-05-11T02:05:43.188Z,99.90
2019-05-11T02:08:11.560Z,99.90
2019-05-11T02:10:39.948Z,99.90
2019-05-11T02:13:08.324Z,99.90
2019-05-11T02:15:36.713Z,99.90
2019-05-11T02:18:05.323Z,99.90
2019-05-11T02:20:33.695Z,99.90
2019-05-11T02:23:02.081Z,99.90
2019-05-11T02:25:30.455Z,99.90
2019-05-11T02:27:58.828Z,99.90
2019-05-11T02:30:27.220Z,99.90
2019-05-11T02:32:55.595Z,99.90
2019-05-11T02:35:23.980Z,99.90
2019-05-11T02:37:52.358Z,99.90
2019-05-11T02:40:23.783Z,99.90
2019-05-11T02:42:52.172Z,99.90
2019-05-11T02:45:41.143Z,99.90
2019-05-11T02:48:09.665Z,99.90
2019-05-11T02:50:39.152Z,99.90
2019-05-11T02:53:08.684Z,99.90
2019-05-11T02:55:37.197Z,99.90
2019-05-11T02:58:07.749Z,99.90
2019-05-11T03:00:41.240Z,99.90
2019-05-11T03:03:09.748Z,99.90
2019-05-11T03:05:38.189Z,99.90
2019-05-11T03:08:06.645Z,99.90
2019-05-11T03:10:35.023Z,99.90
2019-05-11T03:13:03.467Z,99.90
2019-05-11T03:15:31.986Z,99.90
2019-05-11T03:18:00.379Z,99.90
2019-05-11T03:20:28.751Z,99.90
2019-05-11T03:22:57.142Z,99.90
2019-05-11T03:25:25.566Z,99.90
2019-05-11T03:27:53.992Z,99.90
2019-05-11T03:30:22.809Z,99.90
2019-05-11T03:32:51.268Z,99.90
2019-05-11T03:35:19.652Z,99.90
2019-05-11T03:37:48.019Z,99.90
2019-05-11T03:40:16.649Z,99.90
2019-05-11T03:42:45.004Z,99.90
2019-05-11T03:45:14.121Z,99.90
2019-05-11T03:47:42.514Z,99.90
2019-05-11T03:50:11.033Z,99.90
2019-05-11T03:52:39.414Z,99.90
2019-05-11T03:55:07.940Z,99.90
2019-05-11T03:57:36.311Z,99.90
2019-05-11T04:00:06.541Z,99.90
2019-05-11T04:02:34.936Z,99.90
2019-05-11T04:05:04.446Z,99.90
2019-05-11T04:07:32.828Z,99.90
2019-05-11T04:10:01.220Z,99.90
2019-05-11T04:12:34.965Z,99.90
2019-05-11T04:14:59.709Z,99.90
2019-05-11T04:17:28.093Z,99.90
2019-05-11T04:19:56.463Z,99.90
2019-05-11T04:22:24.840Z,99.90
2019-05-11T04:24:53.234Z,99.90
2019-05-11T04:27:21.608Z,99.90
2019-05-11T04:29:49.985Z,99.90
2019-05-11T04:32:18.371Z,99.90
2019-05-11T04:34:46.747Z,99.90
2019-05-11T04:37:15.127Z,99.90
2019-05-11T04:39:43.516Z,99.90
2019-05-11T04:42:11.891Z,99.90
2019-05-11T04:44:40.269Z,99.90
2019-05-11T04:47:08.664Z,99.90
2019-05-11T04:49:37.032Z,99.90
2019-05-11T04:52:05.415Z,99.90
2019-05-11T04:54:33.804Z,99.90
2019-05-11T04:57:02.180Z,99.90
2019-05-11T04:59:30.568Z,99.90
2019-05-11T05:01:58.945Z,99.90
2019-05-11T05:04:27.319Z,99.90
2019-05-11T05:06:59.770Z,99.90
2019-05-11T05:09:25.837Z,99.90
2019-05-11T05:11:54.364Z,99.90
2019-05-11T05:14:22.747Z,99.90
2019-05-11T05:16:51.119Z,99.90
2019-05-11T05:19:19.520Z,99.90
2019-05-11T05:21:47.888Z,99.90
2019-05-11T05:24:16.264Z,99.90
2019-05-11T05:26:44.649Z,99.90
2019-05-11T05:29:13.023Z,99.90
2019-05-11T05:31:41.413Z,99.90
2019-05-11T05:34:09.792Z,99.90
2019-05-11T05:36:38.176Z,99.90
2019-05-11T05:39:09.260Z,99.90
2019-05-11T05:41:37.399Z,99.90
2019-05-11T05:44:05.771Z,99.90
2019-05-11T05:46:34.151Z,99.90
2019-05-11T05:49:02.539Z,99.90
2019-05-11T05:51:30.918Z,99.90
2019-05-11T05:53:59.300Z,99.90
2019-05-11T05:56:27.679Z,99.90
2019-05-11T05:58:56.057Z,99.90
2019-05-11T06:01:24.432Z,99.90
2019-05-11T06:03:52.817Z,99.90
2019-05-11T06:06:21.187Z,99.90
2019-05-11T06:08:49.576Z,99.90
2019-05-11T06:11:17.952Z,99.90
2019-05-11T06:13:46.327Z,99.90
2019-05-11T06:16:14.711Z,99.90
2019-05-11T06:18:43.084Z,99.90
2019-05-11T06:21:11.471Z,99.90
2019-05-11T06:23:39.851Z,99.90
2019-05-11T06:26:08.239Z,99.90
2019-05-11T06:28:36.611Z,99.90
2019-05-11T06:31:04.988Z,99.90
2019-05-11T06:33:33.384Z,99.90
2019-05-11T06:36:01.763Z,99.90
2019-05-11T06:38:30.139Z,99.90
2019-05-11T06:40:58.527Z,99.90
2019-05-11T06:43:26.906Z,99.90
2019-05-11T06:45:55.295Z,99.90
2019-05-11T06:48:23.677Z,99.90
2019-05-11T06:50:52.077Z,99.90
2019-05-11T06:53:20.464Z,99.90
2019-05-11T06:55:48.863Z,99.90
2019-05-11T06:58:17.241Z,99.90
2019-05-11T07:00:45.657Z,99.90
2019-05-11T07:03:14.039Z,99.90
2019-05-11T07:05:42.417Z,99.90
2019-05-11T07:08:10.808Z,99.90
2019-05-11T07:10:39.472Z,99.90
2019-05-11T07:13:07.852Z,99.90
2019-05-11T07:15:36.315Z,99.90
2019-05-11T07:18:05.160Z,99.90
2019-05-11T07:20:48.269Z,99.90
2019-05-11T07:23:03.657Z,99.90
2019-05-11T07:25:32.043Z,99.90
2019-05-11T07:28:00.428Z,99.90
2019-05-11T07:30:28.800Z,99.90
2019-05-11T07:32:58.096Z,99.90
2019-05-11T07:35:27.979Z,99.90
2019-05-11T07:37:58.177Z,99.90
2019-05-11T07:40:27.938Z,99.90
2019-05-11T07:42:58.762Z,99.90
2019-05-11T07:45:28.314Z,99.90
2019-05-11T07:47:58.793Z,99.90
2019-05-11T07:50:28.337Z,99.90
2019-05-11T07:52:58.891Z,99.90
2019-05-11T07:55:28.214Z,99.90
2019-05-11T07:57:58.594Z,99.90
2019-05-11T08:00:28.070Z,99.90
2019-05-11T08:02:58.474Z,99.90
2019-05-11T08:05:28.398Z,99.90
2019-05-11T08:07:59.310Z,99.90
2019-05-11T08:10:28.111Z,99.90
2019-05-11T08:12:58.758Z,99.90
2019-05-11T08:15:28.387Z,99.90
2019-05-11T08:17:57.886Z,99.90
2019-05-11T08:20:28.046Z,99.90
2019-05-11T08:22:58.706Z,99.90
2019-05-11T08:25:28.654Z,99.90
2019-05-11T08:27:58.805Z,99.90
2019-05-11T08:30:27.901Z,99.90
2019-05-11T08:32:58.245Z,99.90
2019-05-11T08:35:30.931Z,99.90
2019-05-11T08:37:58.204Z,99.60
2019-05-11T08:40:28.847Z,99.50
2019-05-11T08:42:58.252Z,99.40
2019-05-11T08:45:27.980Z,99.30
2019-05-11T08:47:58.006Z,99.30
2019-05-11T08:50:27.908Z,97.90
2019-05-11T08:52:58.067Z,98.00
2019-05-11T08:55:28.779Z,97.40
2019-05-11T08:57:58.514Z,96.80
2019-05-11T09:00:28.400Z,96.70
2019-05-11T09:02:58.253Z,96.00
2019-05-11T09:05:28.007Z,95.80
2019-05-11T09:07:57.765Z,95.10
2019-05-11T09:10:28.058Z,94.40
2019-05-11T09:12:58.855Z,92.30
2019-05-11T09:15:36.627Z,88.90
2019-05-11T09:17:57.739Z,82.50
2019-05-11T09:20:28.511Z,76.90
2019-05-11T09:22:58.718Z,80.40
2019-05-11T09:25:27.793Z,80.50
2019-05-11T09:27:58.526Z,80.50
2019-05-11T09:30:28.622Z,82.10
2019-05-11T09:32:58.112Z,81.80
2019-05-11T09:35:29.020Z,81.70
2019-05-11T09:37:58.766Z,80.70
2019-05-11T09:40:28.373Z,81.70
2019-05-11T09:42:58.545Z,78.70
2019-05-11T09:45:27.785Z,78.70
2019-05-11T09:47:58.291Z,75.80
2019-05-11T09:50:28.344Z,73.60
2019-05-11T09:52:58.114Z,70.90
2019-05-11T09:55:28.292Z,69.00
2019-05-11T09:57:58.016Z,68.80
2019-05-11T10:00:28.304Z,60.80
2019-05-11T10:02:57.677Z,60.60
2019-05-11T10:05:28.444Z,62.50
2019-05-11T10:07:58.710Z,61.20
2019-05-11T10:10:28.775Z,63.90
2019-05-11T10:12:58.758Z,55.00
2019-05-11T10:15:27.976Z,60.20
2019-05-11T10:17:58.206Z,57.40
2019-05-11T10:20:28.640Z,58.30
2019-05-11T10:22:57.932Z,55.70
2019-05-11T10:25:28.507Z,53.70
2019-05-11T10:27:58.033Z,50.50
2019-05-11T10:30:28.084Z,53.50
2019-05-11T10:32:57.784Z,53.80
2019-05-11T10:35:28.184Z,50.70
2019-05-11T10:37:58.298Z,49.90
2019-05-11T10:40:28.170Z,47.60
2019-05-11T10:42:59.001Z,48.10
2019-05-11T10:45:28.499Z,49.60
2019-05-11T10:48:00.349Z,49.80
2019-05-11T10:50:28.810Z,45.90
2019-05-11T10:52:59.010Z,46.60
2019-05-11T10:55:28.021Z,45.60
2019-05-11T10:57:58.066Z,49.10
2019-05-11T11:00:28.317Z,51.40
2019-05-11T11:02:58.079Z,57.80
2019-05-11T11:05:27.953Z,68.40
2019-05-11T11:07:58.666Z,76.20
2019-05-11T11:10:28.637Z,78.90
2019-05-11T11:12:57.807Z,77.90
2019-05-11T11:15:28.646Z,64.10
2019-05-11T11:17:57.908Z,58.60
2019-05-11T11:20:28.039Z,61.50
2019-05-11T11:22:58.337Z,55.70
2019-05-11T11:25:28.446Z,54.10
2019-05-11T11:27:57.815Z,54.90
2019-05-11T11:30:28.409Z,62.40
2019-05-11T11:32:58.565Z,65.60
2019-05-11T11:35:27.880Z,70.60
2019-05-11T11:37:58.499Z,71.90
2019-05-11T11:40:28.157Z,68.10
2019-05-11T11:42:58.118Z,61.60
2019-05-11T11:45:28.777Z,66.90
2019-05-11T11:47:58.039Z,73.20
2019-05-11T11:50:28.335Z,75.50
2019-05-11T11:52:57.825Z,79.60
2019-05-11T11:55:28.797Z,80.20
2019-05-11T11:57:58.665Z,76.60
2019-05-11T12:00:28.772Z,65.00
2019-05-11T12:02:58.010Z,56.10
2019-05-11T12:05:28.256Z,54.00
2019-05-11T12:07:58.030Z,51.30
2019-05-11T12:10:28.486Z,51.70
2019-05-11T12:12:58.167Z,48.50
2019-05-11T12:15:28.287Z,52.20
2019-05-11T12:17:58.718Z,56.90
2019-05-11T12:20:28.666Z,54.70
2019-05-11T12:23:18.029Z,59.90
2019-05-11T12:25:48.673Z,69.20
2019-05-11T12:28:18.381Z,76.60
2019-05-11T12:30:48.160Z,79.80
2019-05-11T12:33:18.707Z,79.70
2019-05-11T12:35:48.189Z,83.20
2019-05-11T12:38:18.369Z,83.80
2019-05-11T12:40:47.724Z,86.20
2019-05-11T12:43:18.398Z,86.80
2019-05-11T12:45:48.132Z,79.50
2019-05-11T12:48:18.111Z,76.70
2019-05-11T12:50:48.432Z,75.00
2019-05-11T12:53:18.562Z,76.10
2019-05-11T12:55:48.318Z,72.10
2019-05-11T12:58:18.212Z,72.50
2019-05-11T13:00:47.939Z,71.30
2019-05-11T13:03:18.670Z,66.40
2019-05-11T13:05:48.449Z,61.10
2019-05-11T13:08:18.418Z,58.20
2019-05-11T13:10:47.894Z,58.50
2019-05-11T13:13:18.183Z,58.90
2019-05-11T13:15:47.978Z,63.70
2019-05-11T13:18:18.634Z,69.60
2019-05-11T13:20:48.241Z,71.50
2019-05-11T13:23:18.498Z,72.20
2019-05-11T13:25:48.047Z,59.10
2019-05-11T13:28:17.968Z,56.30
2019-05-11T13:30:48.575Z,59.10
2019-05-11T13:33:18.778Z,61.80
2019-05-11T13:35:48.258Z,54.00
2019-05-11T13:38:17.894Z,46.70
2019-05-11T13:40:48.549Z,45.70
2019-05-11T13:43:18.620Z,43.90
2019-05-11T13:45:47.954Z,42.00
2019-05-11T13:48:17.679Z,42.00
2019-05-11T13:50:47.999Z,42.20
2019-05-11T13:53:18.289Z,45.40
2019-05-11T13:55:48.111Z,49.60
2019-05-11T13:58:19.477Z,51.50
2019-05-11T14:00:48.108Z,53.70
2019-05-11T14:03:18.463Z,53.50
2019-05-11T14:05:48.271Z,50.10
2019-05-11T14:08:18.598Z,47.30
2019-05-11T14:10:48.848Z,45.70
2019-05-11T14:13:18.152Z,41.60
2019-05-11T14:15:48.143Z,40.80
2019-05-11T14:18:35.064Z,41.80
2019-05-11T14:21:03.451Z,42.10
2019-05-11T14:23:31.837Z,39.10
2019-05-11T14:26:00.211Z,36.70
2019-05-11T14:28:28.638Z,38.20
2019-05-11T14:30:57.842Z,38.30
2019-05-11T14:33:44.825Z,38.90
2019-05-11T14:36:13.215Z,35.60
2019-05-11T14:38:41.584Z,33.80
2019-05-11T14:41:09.970Z,35.20
2019-05-11T14:43:38.528Z,32.80
2019-05-11T14:46:08.581Z,34.50
2019-05-11T14:48:39.117Z,36.10
2019-05-11T14:51:08.557Z,37.60
2019-05-11T14:53:37.861Z,38.30
2019-05-11T14:56:08.338Z,36.40
2019-05-11T14:58:38.651Z,36.50
2019-05-11T15:01:18.816Z,35.70
2019-05-11T15:06:33.258Z,33.70
2019-05-11T17:53:40.843Z,74.80
2019-05-11T17:56:09.467Z,70.50
2019-05-11T17:58:38.023Z,69.20
2019-05-11T18:01:09.208Z,67.50
2019-05-11T18:03:38.453Z,70.60
2019-05-11T18:06:08.511Z,70.10
2019-05-11T18:08:36.962Z,75.40
2019-05-11T18:11:05.325Z,74.90
2019-05-11T18:13:33.715Z,75.90
2019-05-11T18:16:02.084Z,75.50
2019-05-11T18:18:30.461Z,74.90
2019-05-11T18:20:58.827Z,74.10
2019-05-11T18:23:28.213Z,75.60
2019-05-11T18:25:56.931Z,74.80
2019-05-11T18:28:25.304Z,76.90
2019-05-11T18:30:53.692Z,78.20
2019-05-11T18:33:22.064Z,78.70
2019-05-11T18:35:50.443Z,77.90
2019-05-11T18:38:18.819Z,76.40
2019-05-11T18:40:48.661Z,77.30
2019-05-11T18:43:18.805Z,77.60
2019-05-11T18:45:48.860Z,79.60
2019-05-11T18:48:18.513Z,81.80
2019-05-11T18:50:49.137Z,85.30
2019-05-11T18:53:18.718Z,86.80
2019-05-11T18:55:48.604Z,88.70
2019-05-11T18:58:18.426Z,89.80
2019-05-11T19:00:48.828Z,90.00
2019-05-11T19:03:19.254Z,90.70
2019-05-11T19:05:48.182Z,91.10
2019-05-11T19:08:18.773Z,91.50
2019-05-11T19:10:48.780Z,91.90
2019-05-11T19:13:16.858Z,92.60
2019-05-11T19:15:45.236Z,92.50
2019-05-11T19:18:13.603Z,93.00
2019-05-11T19:20:45.789Z,93.30
2019-05-11T19:23:31.435Z,93.20
2019-05-11T19:25:59.815Z,93.40
2019-05-11T19:28:28.350Z,93.60
2019-05-11T19:30:58.978Z,93.50
2019-05-11T19:33:27.792Z,93.90
2019-05-11T19:35:58.487Z,93.90
2019-05-11T19:38:27.994Z,92.90
2019-05-11T19:40:58.611Z,93.60
2019-05-11T19:43:27.659Z,93.60
2019-05-11T19:45:58.124Z,93.90
2019-05-11T19:48:28.051Z,94.20
2019-05-11T19:51:04.675Z,94.40
2019-05-11T19:53:28.108Z,94.70
2019-05-11T19:55:58.396Z,95.10
2019-05-11T19:58:28.677Z,95.00
2019-05-11T20:00:58.002Z,95.80
2019-05-11T20:03:28.592Z,96.00
2019-05-11T20:05:58.060Z,95.50
2019-05-11T20:08:28.856Z,95.90
2019-05-11T20:11:18.525Z,95.70
2019-05-11T20:13:48.281Z,95.30
2019-05-11T20:16:18.595Z,95.80
2019-05-11T20:18:46.407Z,95.80
2019-05-11T20:21:19.471Z,95.70
2019-05-11T20:23:44.875Z,95.80
2019-05-11T20:26:13.252Z,95.80
2019-05-11T20:28:41.629Z,96.10
2019-05-11T20:31:10.016Z,96.00
2019-05-11T20:33:38.968Z,96.30
2019-05-11T20:36:08.679Z,96.20
2019-05-11T20:38:38.376Z,96.40
2019-05-11T20:41:08.388Z,96.50
2019-05-11T20:43:36.851Z,96.60
2019-05-11T20:46:05.227Z,97.00
2019-05-11T20:48:33.595Z,97.40
2019-05-11T20:51:01.979Z,97.60
2019-05-11T20:53:30.339Z,97.80
2019-05-11T20:55:58.704Z,97.90
2019-05-11T20:58:28.899Z,98.40
2019-05-11T21:00:57.181Z,98.70
2019-05-11T21:03:27.541Z,99.10
2019-05-11T21:05:55.647Z,99.20
2019-05-11T21:08:24.027Z,99.50
2019-05-11T21:10:52.471Z,99.60
2019-05-11T21:13:20.851Z,99.90
2019-05-11T21:15:49.223Z,99.90
2019-05-11T21:18:18.430Z,99.90
2019-05-11T21:20:48.363Z,99.90
2019-05-11T21:23:18.596Z,99.90
2019-05-11T21:25:46.999Z,99.90
2019-05-11T21:28:15.375Z,99.90
2019-05-11T21:30:43.751Z,99.90
2019-05-11T21:33:12.124Z,99.90
2019-05-11T21:35:40.511Z,99.90
2019-05-11T21:38:08.887Z,99.90
2019-05-11T21:40:38.119Z,99.90
2019-05-11T21:43:08.646Z,99.90
2019-05-11T21:45:38.362Z,99.90
2019-05-11T21:48:06.803Z,99.90
2019-05-11T21:50:35.172Z,99.90
2019-05-11T21:53:03.539Z,99.90
2019-05-11T21:55:31.911Z,99.90
2019-05-11T21:58:00.282Z,99.90
2019-05-11T22:00:30.605Z,99.90
2019-05-11T22:02:59.315Z,99.90
2019-05-11T22:05:28.931Z,99.90
2019-05-11T22:07:58.265Z,99.90
2019-05-11T22:10:28.316Z,99.90
2019-05-11T22:12:56.895Z,99.90
2019-05-11T22:15:25.343Z,99.90
2019-05-11T22:17:53.715Z,99.90
2019-05-11T22:20:22.099Z,99.90
2019-05-11T22:22:50.471Z,99.90
2019-05-11T22:25:18.839Z,99.90
2019-05-11T22:27:48.725Z,99.90
2019-05-11T22:30:18.484Z,99.90
2019-05-11T22:32:47.754Z,99.90
2019-05-11T22:35:18.346Z,99.90
2019-05-11T22:37:48.744Z,99.90
2019-05-11T22:40:17.031Z,99.90
2019-05-11T22:42:45.399Z,99.90
2019-05-11T22:45:13.847Z,99.90
2019-05-11T22:47:42.211Z,99.90
2019-05-11T22:50:10.655Z,99.90
2019-05-11T22:52:40.227Z,99.90
2019-05-11T22:55:11.795Z,99.90
2019-05-11T22:57:39.547Z,99.90
2019-05-11T23:00:11.519Z,99.90
2019-05-11T23:02:39.952Z,99.90
2019-05-11T23:05:08.997Z,99.90
2019-05-11T23:07:41.214Z,99.90
2019-05-11T23:10:09.468Z,99.90
2019-05-11T23:12:38.519Z,99.90
2019-05-11T23:15:14.397Z,99.90
2019-05-11T23:17:42.754Z,99.90
2019-05-11T23:20:11.771Z,99.90
2019-05-11T23:22:58.133Z,99.90
2019-05-11T23:25:19.239Z,99.90
2019-05-11T23:27:48.509Z,99.90
2019-05-11T23:30:19.911Z,99.90
2019-05-11T23:32:49.562Z,99.90
2019-05-11T23:35:18.822Z,99.90
2019-05-11T23:37:49.649Z,99.90
2019-05-11T23:40:18.422Z,99.90
2019-05-11T23:42:49.072Z,99.90
2019-05-11T23:45:18.897Z,99.90
2019-05-11T23:47:48.620Z,99.90
2019-05-11T23:50:19.229Z,99.90
2019-05-11T23:52:53.214Z,99.90
2019-05-11T23:55:18.994Z,99.90
2019-05-11T23:57:48.773Z,99.90
